sensor_id;sensor_type;location;lat;lon;timestamp;P1;durP1;ratioP1;P2;durP2;ratioP2
76127;SDS011;64873;50.102;14.434;2024-03-08T00:00:32;31.65;;;16.85;;
76127;SDS011;64873;50.102;14.434;2024-03-08T00:02:57;34.42;;;16.05;;
76127;SDS011;64873;50.102;14.434;2024-03-08T00:05:23;34.65;;;18.08;;
76127;SDS011;64873;50.102;14.434;2024-03-08T00:07:49;41.13;;;20.45;;
76127;SDS011;64873;50.102;14.434;2024-03-08T00:10:14;32.53;;;18.30;;
76127;SDS011;64873;50.102;14.434;2024-03-08T00:12:40;37.33;;;20.17;;
76127;SDS011;64873;50.102;14.434;2024-03-08T00:15:13;36.25;;;18.33;;
76127;SDS011;64873;50.102;14.434;2024-03-08T00:17:40;37.67;;;21.75;;
76127;SDS011;64873;50.102;14.434;2024-03-08T00:20:06;33.50;;;17.77;;
76127;SDS011;64873;50.102;14.434;2024-03-08T00:22:36;34.25;;;16.88;;
76127;SDS011;64873;50.102;14.434;2024-03-08T00:25:03;36.00;;;19.10;;
76127;SDS011;64873;50.102;14.434;2024-03-08T00:27:29;41.83;;;20.17;;
76127;SDS011;64873;50.102;14.434;2024-03-08T00:29:58;35.08;;;17.25;;
76127;SDS011;64873;50.102;14.434;2024-03-08T00:32:24;36.97;;;20.40;;
76127;SDS011;64873;50.102;14.434;2024-03-08T00:34:50;40.28;;;19.70;;
76127;SDS011;64873;50.102;14.434;2024-03-08T00:37:19;33.60;;;19.42;;
76127;SDS011;64873;50.102;14.434;2024-03-08T00:39:45;33.85;;;18.10;;
76127;SDS011;64873;50.102;14.434;2024-03-08T00:42:10;35.28;;;18.02;;
76127;SDS011;64873;50.102;14.434;2024-03-08T00:44:36;38.60;;;22.45;;
76127;SDS011;64873;50.102;14.434;2024-03-08T00:47:01;39.22;;;23.15;;
76127;SDS011;64873;50.102;14.434;2024-03-08T00:49:28;38.67;;;18.35;;
76127;SDS011;64873;50.102;14.434;2024-03-08T00:51:53;38.60;;;18.83;;
76127;SDS011;64873;50.102;14.434;2024-03-08T00:54:19;40.78;;;19.48;;
76127;SDS011;64873;50.102;14.434;2024-03-08T00:56:44;30.70;;;16.08;;
76127;SDS011;64873;50.102;14.434;2024-03-08T00:59:11;37.90;;;19.50;;
76127;SDS011;64873;50.102;14.434;2024-03-08T01:01:36;38.35;;;19.05;;
76127;SDS011;64873;50.102;14.434;2024-03-08T01:04:01;34.33;;;17.27;;
76127;SDS011;64873;50.102;14.434;2024-03-08T01:06:27;33.08;;;18.83;;
76127;SDS011;64873;50.102;14.434;2024-03-08T01:08:52;41.28;;;21.42;;
76127;SDS011;64873;50.102;14.434;2024-03-08T01:11:18;35.22;;;18.88;;
76127;SDS011;64873;50.102;14.434;2024-03-08T01:13:43;32.35;;;18.30;;
76127;SDS011;64873;50.102;14.434;2024-03-08T01:16:12;37.15;;;18.70;;
76127;SDS011;64873;50.102;14.434;2024-03-08T01:18:38;30.45;;;16.55;;
76127;SDS011;64873;50.102;14.434;2024-03-08T01:21:03;36.10;;;19.52;;
76127;SDS011;64873;50.102;14.434;2024-03-08T01:23:29;35.75;;;18.17;;
76127;SDS011;64873;50.102;14.434;2024-03-08T01:25:55;34.38;;;18.70;;
76127;SDS011;64873;50.102;14.434;2024-03-08T01:28:25;42.42;;;19.15;;
76127;SDS011;64873;50.102;14.434;2024-03-08T01:30:51;34.40;;;19.08;;
76127;SDS011;64873;50.102;14.434;2024-03-08T01:33:29;35.92;;;18.90;;
76127;SDS011;64873;50.102;14.434;2024-03-08T01:35:56;37.65;;;19.17;;
76127;SDS011;64873;50.102;14.434;2024-03-08T01:38:23;41.33;;;20.95;;
76127;SDS011;64873;50.102;14.434;2024-03-08T01:40:48;40.83;;;20.08;;
76127;SDS011;64873;50.102;14.434;2024-03-08T01:43:35;37.45;;;19.55;;
76127;SDS011;64873;50.102;14.434;2024-03-08T01:46:00;37.10;;;19.40;;
76127;SDS011;64873;50.102;14.434;2024-03-08T01:48:29;29.08;;;16.35;;
76127;SDS011;64873;50.102;14.434;2024-03-08T01:50:56;32.63;;;16.92;;
76127;SDS011;64873;50.102;14.434;2024-03-08T01:53:23;34.55;;;17.40;;
76127;SDS011;64873;50.102;14.434;2024-03-08T01:55:49;38.03;;;19.95;;
76127;SDS011;64873;50.102;14.434;2024-03-08T01:58:17;38.55;;;19.65;;
76127;SDS011;64873;50.102;14.434;2024-03-08T02:00:45;38.75;;;20.17;;
76127;SDS011;64873;50.102;14.434;2024-03-08T02:03:14;36.88;;;21.70;;
76127;SDS011;64873;50.102;14.434;2024-03-08T02:05:42;39.60;;;18.85;;
76127;SDS011;64873;50.102;14.434;2024-03-08T02:08:09;33.67;;;18.15;;
76127;SDS011;64873;50.102;14.434;2024-03-08T02:10:39;37.30;;;18.85;;
76127;SDS011;64873;50.102;14.434;2024-03-08T02:13:07;38.42;;;20.25;;
76127;SDS011;64873;50.102;14.434;2024-03-08T02:15:51;38.10;;;19.80;;
76127;SDS011;64873;50.102;14.434;2024-03-08T02:18:21;31.73;;;16.77;;
76127;SDS011;64873;50.102;14.434;2024-03-08T02:20:51;39.05;;;19.13;;
76127;SDS011;64873;50.102;14.434;2024-03-08T02:23:17;38.33;;;19.60;;
76127;SDS011;64873;50.102;14.434;2024-03-08T02:25:43;36.33;;;19.52;;
76127;SDS011;64873;50.102;14.434;2024-03-08T02:28:10;37.50;;;19.23;;
76127;SDS011;64873;50.102;14.434;2024-03-08T02:30:36;36.50;;;19.60;;
76127;SDS011;64873;50.102;14.434;2024-03-08T02:33:02;31.08;;;18.05;;
76127;SDS011;64873;50.102;14.434;2024-03-08T02:35:27;36.20;;;18.40;;
76127;SDS011;64873;50.102;14.434;2024-03-08T02:37:53;36.50;;;18.55;;
76127;SDS011;64873;50.102;14.434;2024-03-08T02:40:18;35.58;;;20.00;;
76127;SDS011;64873;50.102;14.434;2024-03-08T02:42:43;34.83;;;19.85;;
76127;SDS011;64873;50.102;14.434;2024-03-08T02:45:09;39.20;;;19.27;;
76127;SDS011;64873;50.102;14.434;2024-03-08T02:47:37;36.30;;;18.88;;
76127;SDS011;64873;50.102;14.434;2024-03-08T02:50:03;36.10;;;19.60;;
76127;SDS011;64873;50.102;14.434;2024-03-08T02:52:28;38.95;;;19.80;;
76127;SDS011;64873;50.102;14.434;2024-03-08T02:54:54;35.75;;;19.05;;
76127;SDS011;64873;50.102;14.434;2024-03-08T02:57:19;32.55;;;18.45;;
76127;SDS011;64873;50.102;14.434;2024-03-08T02:59:45;35.60;;;18.58;;
76127;SDS011;64873;50.102;14.434;2024-03-08T03:02:10;42.75;;;21.08;;
76127;SDS011;64873;50.102;14.434;2024-03-08T03:04:39;36.92;;;19.33;;
76127;SDS011;64873;50.102;14.434;2024-03-08T03:07:05;41.33;;;21.92;;
76127;SDS011;64873;50.102;14.434;2024-03-08T03:09:30;34.90;;;18.52;;
76127;SDS011;64873;50.102;14.434;2024-03-08T03:11:58;34.80;;;19.70;;
76127;SDS011;64873;50.102;14.434;2024-03-08T03:14:23;41.67;;;20.92;;
76127;SDS011;64873;50.102;14.434;2024-03-08T03:16:49;39.33;;;21.58;;
76127;SDS011;64873;50.102;14.434;2024-03-08T03:19:15;37.33;;;21.23;;
76127;SDS011;64873;50.102;14.434;2024-03-08T03:21:41;37.70;;;20.13;;
76127;SDS011;64873;50.102;14.434;2024-03-08T03:24:08;36.47;;;19.65;;
76127;SDS011;64873;50.102;14.434;2024-03-08T03:26:40;35.53;;;18.02;;
76127;SDS011;64873;50.102;14.434;2024-03-08T03:29:06;39.08;;;17.38;;
76127;SDS011;64873;50.102;14.434;2024-03-08T03:31:33;37.20;;;19.33;;
76127;SDS011;64873;50.102;14.434;2024-03-08T03:33:59;41.88;;;21.65;;
76127;SDS011;64873;50.102;14.434;2024-03-08T03:36:27;31.52;;;16.33;;
76127;SDS011;64873;50.102;14.434;2024-03-08T03:38:53;35.88;;;19.75;;
76127;SDS011;64873;50.102;14.434;2024-03-08T03:41:32;32.45;;;17.20;;
76127;SDS011;64873;50.102;14.434;2024-03-08T03:43:57;40.65;;;20.38;;
76127;SDS011;64873;50.102;14.434;2024-03-08T03:46:24;38.35;;;20.33;;
76127;SDS011;64873;50.102;14.434;2024-03-08T03:48:49;38.25;;;21.25;;
76127;SDS011;64873;50.102;14.434;2024-03-08T03:51:18;38.38;;;20.80;;
76127;SDS011;64873;50.102;14.434;2024-03-08T03:53:44;38.38;;;21.48;;
76127;SDS011;64873;50.102;14.434;2024-03-08T03:56:09;39.53;;;21.95;;
76127;SDS011;64873;50.102;14.434;2024-03-08T03:58:35;38.75;;;20.25;;
76127;SDS011;64873;50.102;14.434;2024-03-08T04:01:01;37.83;;;20.77;;
76127;SDS011;64873;50.102;14.434;2024-03-08T04:03:29;34.38;;;17.92;;
76127;SDS011;64873;50.102;14.434;2024-03-08T04:05:54;43.65;;;22.25;;
76127;SDS011;64873;50.102;14.434;2024-03-08T04:08:20;42.10;;;20.67;;
76127;SDS011;64873;50.102;14.434;2024-03-08T04:10:45;37.38;;;18.70;;
76127;SDS011;64873;50.102;14.434;2024-03-08T04:13:11;37.08;;;20.70;;
76127;SDS011;64873;50.102;14.434;2024-03-08T04:15:37;41.67;;;20.55;;
76127;SDS011;64873;50.102;14.434;2024-03-08T04:18:03;35.95;;;19.08;;
76127;SDS011;64873;50.102;14.434;2024-03-08T04:20:28;35.08;;;19.58;;
76127;SDS011;64873;50.102;14.434;2024-03-08T04:22:54;43.70;;;21.05;;
76127;SDS011;64873;50.102;14.434;2024-03-08T04:25:19;43.08;;;21.15;;
76127;SDS011;64873;50.102;14.434;2024-03-08T04:27:46;43.63;;;22.92;;
76127;SDS011;64873;50.102;14.434;2024-03-08T04:30:12;38.80;;;20.15;;
76127;SDS011;64873;50.102;14.434;2024-03-08T04:32:37;38.83;;;19.60;;
76127;SDS011;64873;50.102;14.434;2024-03-08T04:35:03;35.47;;;19.90;;
76127;SDS011;64873;50.102;14.434;2024-03-08T04:37:29;39.70;;;20.85;;
76127;SDS011;64873;50.102;14.434;2024-03-08T04:39:57;42.70;;;21.67;;
76127;SDS011;64873;50.102;14.434;2024-03-08T04:42:23;40.97;;;20.92;;
76127;SDS011;64873;50.102;14.434;2024-03-08T04:44:50;43.55;;;23.52;;
76127;SDS011;64873;50.102;14.434;2024-03-08T04:47:15;43.85;;;21.95;;
76127;SDS011;64873;50.102;14.434;2024-03-08T04:49:43;44.10;;;23.00;;
76127;SDS011;64873;50.102;14.434;2024-03-08T04:52:08;44.60;;;23.75;;
76127;SDS011;64873;50.102;14.434;2024-03-08T04:54:34;39.25;;;20.08;;
76127;SDS011;64873;50.102;14.434;2024-03-08T04:56:59;38.13;;;21.90;;
76127;SDS011;64873;50.102;14.434;2024-03-08T04:59:25;39.22;;;21.60;;
76127;SDS011;64873;50.102;14.434;2024-03-08T05:01:52;44.40;;;22.45;;
76127;SDS011;64873;50.102;14.434;2024-03-08T05:04:17;44.47;;;24.98;;
76127;SDS011;64873;50.102;14.434;2024-03-08T05:06:42;40.30;;;20.63;;
76127;SDS011;64873;50.102;14.434;2024-03-08T05:09:08;44.28;;;22.73;;
76127;SDS011;64873;50.102;14.434;2024-03-08T05:11:44;40.20;;;20.80;;
76127;SDS011;64873;50.102;14.434;2024-03-08T05:14:10;46.65;;;23.40;;
76127;SDS011;64873;50.102;14.434;2024-03-08T05:16:44;40.25;;;19.80;;
76127;SDS011;64873;50.102;14.434;2024-03-08T05:19:17;36.10;;;20.25;;
76127;SDS011;64873;50.102;14.434;2024-03-08T05:21:44;44.42;;;21.27;;
76127;SDS011;64873;50.102;14.434;2024-03-08T05:24:10;42.30;;;22.38;;
76127;SDS011;64873;50.102;14.434;2024-03-08T05:26:36;44.58;;;21.90;;
76127;SDS011;64873;50.102;14.434;2024-03-08T05:29:02;39.95;;;21.55;;
76127;SDS011;64873;50.102;14.434;2024-03-08T05:31:28;42.13;;;21.85;;
76127;SDS011;64873;50.102;14.434;2024-03-08T05:33:54;42.33;;;21.45;;
76127;SDS011;64873;50.102;14.434;2024-03-08T05:36:20;46.35;;;23.42;;
76127;SDS011;64873;50.102;14.434;2024-03-08T05:38:46;47.97;;;22.52;;
76127;SDS011;64873;50.102;14.434;2024-03-08T05:41:12;45.10;;;22.85;;
76127;SDS011;64873;50.102;14.434;2024-03-08T05:43:37;48.03;;;23.83;;
76127;SDS011;64873;50.102;14.434;2024-03-08T05:46:03;47.33;;;23.50;;
76127;SDS011;64873;50.102;14.434;2024-03-08T05:48:32;53.28;;;23.00;;
76127;SDS011;64873;50.102;14.434;2024-03-08T05:50:58;46.22;;;23.77;;
76127;SDS011;64873;50.102;14.434;2024-03-08T05:53:25;42.47;;;22.88;;
76127;SDS011;64873;50.102;14.434;2024-03-08T05:55:50;42.83;;;20.80;;
76127;SDS011;64873;50.102;14.434;2024-03-08T05:58:15;48.70;;;23.85;;
76127;SDS011;64873;50.102;14.434;2024-03-08T06:00:41;39.90;;;19.63;;
76127;SDS011;64873;50.102;14.434;2024-03-08T06:03:06;45.15;;;23.27;;
76127;SDS011;64873;50.102;14.434;2024-03-08T06:05:32;42.28;;;22.63;;
76127;SDS011;64873;50.102;14.434;2024-03-08T06:07:58;45.28;;;23.80;;
76127;SDS011;64873;50.102;14.434;2024-03-08T06:10:24;36.80;;;19.25;;
76127;SDS011;64873;50.102;14.434;2024-03-08T06:12:49;45.40;;;21.80;;
76127;SDS011;64873;50.102;14.434;2024-03-08T06:15:15;35.70;;;16.80;;
76127;SDS011;64873;50.102;14.434;2024-03-08T06:17:41;41.40;;;22.92;;
76127;SDS011;64873;50.102;14.434;2024-03-08T06:20:07;42.30;;;22.48;;
76127;SDS011;64873;50.102;14.434;2024-03-08T06:22:41;39.25;;;19.50;;
76127;SDS011;64873;50.102;14.434;2024-03-08T06:25:07;49.03;;;22.13;;
76127;SDS011;64873;50.102;14.434;2024-03-08T06:27:33;51.40;;;23.38;;
76127;SDS011;64873;50.102;14.434;2024-03-08T06:29:59;45.20;;;23.92;;
76127;SDS011;64873;50.102;14.434;2024-03-08T06:32:25;43.47;;;22.05;;
76127;SDS011;64873;50.102;14.434;2024-03-08T06:34:51;53.25;;;22.23;;
76127;SDS011;64873;50.102;14.434;2024-03-08T06:37:16;47.95;;;22.08;;
76127;SDS011;64873;50.102;14.434;2024-03-08T06:39:47;43.60;;;23.27;;
76127;SDS011;64873;50.102;14.434;2024-03-08T06:42:13;47.22;;;23.08;;
76127;SDS011;64873;50.102;14.434;2024-03-08T06:44:38;45.88;;;24.48;;
76127;SDS011;64873;50.102;14.434;2024-03-08T06:47:10;42.65;;;22.13;;
76127;SDS011;64873;50.102;14.434;2024-03-08T06:49:36;50.33;;;22.52;;
76127;SDS011;64873;50.102;14.434;2024-03-08T06:52:01;43.25;;;23.17;;
76127;SDS011;64873;50.102;14.434;2024-03-08T06:54:27;40.20;;;19.15;;
76127;SDS011;64873;50.102;14.434;2024-03-08T06:56:52;41.05;;;20.00;;
76127;SDS011;64873;50.102;14.434;2024-03-08T06:59:17;45.22;;;21.63;;
76127;SDS011;64873;50.102;14.434;2024-03-08T07:01:43;37.47;;;20.08;;
76127;SDS011;64873;50.102;14.434;2024-03-08T07:04:08;44.38;;;20.27;;
76127;SDS011;64873;50.102;14.434;2024-03-08T07:06:34;44.83;;;20.73;;
76127;SDS011;64873;50.102;14.434;2024-03-08T07:08:59;51.55;;;25.02;;
76127;SDS011;64873;50.102;14.434;2024-03-08T07:11:26;44.97;;;23.73;;
76127;SDS011;64873;50.102;14.434;2024-03-08T07:13:51;44.20;;;23.83;;
76127;SDS011;64873;50.102;14.434;2024-03-08T07:16:17;41.30;;;22.30;;
76127;SDS011;64873;50.102;14.434;2024-03-08T07:18:43;40.28;;;19.92;;
76127;SDS011;64873;50.102;14.434;2024-03-08T07:21:11;44.13;;;23.67;;
76127;SDS011;64873;50.102;14.434;2024-03-08T07:23:37;42.65;;;21.35;;
76127;SDS011;64873;50.102;14.434;2024-03-08T07:26:15;51.40;;;23.63;;
76127;SDS011;64873;50.102;14.434;2024-03-08T07:28:40;44.05;;;21.75;;
76127;SDS011;64873;50.102;14.434;2024-03-08T07:31:06;44.92;;;22.95;;
76127;SDS011;64873;50.102;14.434;2024-03-08T07:33:37;40.63;;;20.63;;
76127;SDS011;64873;50.102;14.434;2024-03-08T07:36:03;43.05;;;21.65;;
76127;SDS011;64873;50.102;14.434;2024-03-08T07:38:29;44.30;;;22.20;;
76127;SDS011;64873;50.102;14.434;2024-03-08T07:40:55;44.33;;;21.15;;
76127;SDS011;64873;50.102;14.434;2024-03-08T07:43:22;39.67;;;20.08;;
76127;SDS011;64873;50.102;14.434;2024-03-08T07:45:48;43.45;;;21.08;;
76127;SDS011;64873;50.102;14.434;2024-03-08T07:48:13;44.10;;;21.55;;
76127;SDS011;64873;50.102;14.434;2024-03-08T07:50:39;45.30;;;23.75;;
76127;SDS011;64873;50.102;14.434;2024-03-08T07:53:05;40.80;;;21.30;;
76127;SDS011;64873;50.102;14.434;2024-03-08T07:55:32;43.40;;;21.63;;
76127;SDS011;64873;50.102;14.434;2024-03-08T07:57:58;40.08;;;19.23;;
76127;SDS011;64873;50.102;14.434;2024-03-08T08:00:24;37.45;;;18.83;;
76127;SDS011;64873;50.102;14.434;2024-03-08T08:02:52;42.28;;;20.85;;
76127;SDS011;64873;50.102;14.434;2024-03-08T08:05:18;43.55;;;21.67;;
76127;SDS011;64873;50.102;14.434;2024-03-08T08:07:46;39.83;;;20.88;;
76127;SDS011;64873;50.102;14.434;2024-03-08T08:10:12;45.70;;;24.30;;
76127;SDS011;64873;50.102;14.434;2024-03-08T08:12:49;38.03;;;17.98;;
76127;SDS011;64873;50.102;14.434;2024-03-08T08:15:14;43.17;;;22.38;;
76127;SDS011;64873;50.102;14.434;2024-03-08T08:17:43;32.47;;;15.98;;
76127;SDS011;64873;50.102;14.434;2024-03-08T08:20:10;34.97;;;17.75;;
76127;SDS011;64873;50.102;14.434;2024-03-08T08:22:37;37.55;;;17.20;;
76127;SDS011;64873;50.102;14.434;2024-03-08T08:25:09;31.27;;;16.70;;
76127;SDS011;64873;50.102;14.434;2024-03-08T08:27:38;31.67;;;16.55;;
76127;SDS011;64873;50.102;14.434;2024-03-08T08:30:05;33.00;;;15.48;;
76127;SDS011;64873;50.102;14.434;2024-03-08T08:32:37;37.30;;;17.35;;
76127;SDS011;64873;50.102;14.434;2024-03-08T08:35:04;31.70;;;18.50;;
76127;SDS011;64873;50.102;14.434;2024-03-08T08:37:31;33.95;;;18.52;;
76127;SDS011;64873;50.102;14.434;2024-03-08T08:39:57;42.78;;;20.70;;
76127;SDS011;64873;50.102;14.434;2024-03-08T08:42:23;32.72;;;17.88;;
76127;SDS011;64873;50.102;14.434;2024-03-08T08:44:48;32.70;;;18.40;;
76127;SDS011;64873;50.102;14.434;2024-03-08T08:47:15;32.38;;;16.33;;
76127;SDS011;64873;50.102;14.434;2024-03-08T08:49:43;34.45;;;19.40;;
76127;SDS011;64873;50.102;14.434;2024-03-08T08:52:11;35.40;;;17.45;;
76127;SDS011;64873;50.102;14.434;2024-03-08T08:54:36;34.78;;;18.38;;
76127;SDS011;64873;50.102;14.434;2024-03-08T08:57:02;34.22;;;18.02;;
76127;SDS011;64873;50.102;14.434;2024-03-08T08:59:32;36.13;;;19.73;;
76127;SDS011;64873;50.102;14.434;2024-03-08T09:02:01;41.53;;;19.92;;
76127;SDS011;64873;50.102;14.434;2024-03-08T09:04:26;40.55;;;19.98;;
76127;SDS011;64873;50.102;14.434;2024-03-08T09:06:52;37.00;;;19.73;;
76127;SDS011;64873;50.102;14.434;2024-03-08T09:09:18;32.75;;;16.77;;
76127;SDS011;64873;50.102;14.434;2024-03-08T09:11:44;32.60;;;16.58;;
76127;SDS011;64873;50.102;14.434;2024-03-08T09:14:11;38.10;;;19.20;;
76127;SDS011;64873;50.102;14.434;2024-03-08T09:16:37;33.85;;;17.38;;
76127;SDS011;64873;50.102;14.434;2024-03-08T09:19:02;41.22;;;20.17;;
76127;SDS011;64873;50.102;14.434;2024-03-08T09:21:27;33.70;;;17.65;;
76127;SDS011;64873;50.102;14.434;2024-03-08T09:23:53;35.97;;;17.70;;
76127;SDS011;64873;50.102;14.434;2024-03-08T09:26:19;34.90;;;18.13;;
76127;SDS011;64873;50.102;14.434;2024-03-08T09:28:44;42.90;;;22.83;;
76127;SDS011;64873;50.102;14.434;2024-03-08T09:31:10;33.08;;;16.58;;
76127;SDS011;64873;50.102;14.434;2024-03-08T09:33:36;37.75;;;19.33;;
76127;SDS011;64873;50.102;14.434;2024-03-08T09:36:02;29.80;;;15.90;;
76127;SDS011;64873;50.102;14.434;2024-03-08T09:38:29;32.40;;;16.50;;
76127;SDS011;64873;50.102;14.434;2024-03-08T09:40:54;31.77;;;17.55;;
76127;SDS011;64873;50.102;14.434;2024-03-08T09:43:22;32.45;;;17.65;;
76127;SDS011;64873;50.102;14.434;2024-03-08T09:45:49;37.05;;;18.25;;
76127;SDS011;64873;50.102;14.434;2024-03-08T09:48:16;32.05;;;16.60;;
76127;SDS011;64873;50.102;14.434;2024-03-08T09:50:44;39.28;;;18.50;;
76127;SDS011;64873;50.102;14.434;2024-03-08T09:53:11;35.70;;;17.08;;
76127;SDS011;64873;50.102;14.434;2024-03-08T09:55:40;35.20;;;16.95;;
76127;SDS011;64873;50.102;14.434;2024-03-08T09:58:13;31.13;;;14.90;;
76127;SDS011;64873;50.102;14.434;2024-03-08T10:00:52;33.45;;;16.70;;
76127;SDS011;64873;50.102;14.434;2024-03-08T10:03:21;30.90;;;16.85;;
76127;SDS011;64873;50.102;14.434;2024-03-08T10:05:47;35.92;;;15.70;;
76127;SDS011;64873;50.102;14.434;2024-03-08T10:08:14;33.08;;;19.08;;
76127;SDS011;64873;50.102;14.434;2024-03-08T10:10:40;30.10;;;16.50;;
76127;SDS011;64873;50.102;14.434;2024-03-08T10:13:06;33.20;;;17.55;;
76127;SDS011;64873;50.102;14.434;2024-03-08T10:15:32;29.52;;;16.05;;
76127;SDS011;64873;50.102;14.434;2024-03-08T10:18:00;29.85;;;16.08;;
76127;SDS011;64873;50.102;14.434;2024-03-08T10:20:27;31.30;;;15.52;;
76127;SDS011;64873;50.102;14.434;2024-03-08T10:22:58;29.63;;;16.05;;
76127;SDS011;64873;50.102;14.434;2024-03-08T10:25:24;29.60;;;15.88;;
76127;SDS011;64873;50.102;14.434;2024-03-08T10:27:49;32.05;;;16.20;;
76127;SDS011;64873;50.102;14.434;2024-03-08T10:30:16;27.83;;;15.27;;
76127;SDS011;64873;50.102;14.434;2024-03-08T10:32:46;28.65;;;14.15;;
76127;SDS011;64873;50.102;14.434;2024-03-08T10:35:12;32.03;;;17.17;;
76127;SDS011;64873;50.102;14.434;2024-03-08T10:37:47;35.50;;;21.63;;
76127;SDS011;64873;50.102;14.434;2024-03-08T10:40:27;30.80;;;16.73;;
76127;SDS011;64873;50.102;14.434;2024-03-08T10:42:54;28.95;;;16.55;;
76127;SDS011;64873;50.102;14.434;2024-03-08T10:45:36;30.50;;;15.68;;
76127;SDS011;64873;50.102;14.434;2024-03-08T10:51:02;24.90;;;14.20;;
76127;SDS011;64873;50.102;14.434;2024-03-08T10:53:28;25.58;;;13.73;;
76127;SDS011;64873;50.102;14.434;2024-03-08T10:55:57;30.73;;;18.20;;
76127;SDS011;64873;50.102;14.434;2024-03-08T10:58:23;29.23;;;14.30;;
76127;SDS011;64873;50.102;14.434;2024-03-08T11:00:53;31.75;;;17.40;;
76127;SDS011;64873;50.102;14.434;2024-03-08T11:03:55;35.60;;;16.77;;
76127;SDS011;64873;50.102;14.434;2024-03-08T11:06:19;24.58;;;14.90;;
76127;SDS011;64873;50.102;14.434;2024-03-08T11:08:49;29.40;;;16.70;;
76127;SDS011;64873;50.102;14.434;2024-03-08T11:13:55;30.23;;;15.75;;
76127;SDS011;64873;50.102;14.434;2024-03-08T11:19:38;30.27;;;13.27;;
76127;SDS011;64873;50.102;14.434;2024-03-08T11:21:38;27.30;;;15.00;;
76127;SDS011;64873;50.102;14.434;2024-03-08T11:24:11;28.25;;;16.35;;
76127;SDS011;64873;50.102;14.434;2024-03-08T11:26:41;31.65;;;15.73;;
76127;SDS011;64873;50.102;14.434;2024-03-08T11:32:04;28.00;;;16.92;;
76127;SDS011;64873;50.102;14.434;2024-03-08T11:34:30;26.63;;;14.65;;
76127;SDS011;64873;50.102;14.434;2024-03-08T11:36:58;27.35;;;15.35;;
76127;SDS011;64873;50.102;14.434;2024-03-08T11:39:24;29.02;;;14.70;;
76127;SDS011;64873;50.102;14.434;2024-03-08T11:41:50;28.58;;;15.93;;
76127;SDS011;64873;50.102;14.434;2024-03-08T11:44:16;24.23;;;13.80;;
76127;SDS011;64873;50.102;14.434;2024-03-08T11:46:42;27.70;;;14.57;;
76127;SDS011;64873;50.102;14.434;2024-03-08T11:49:12;19.17;;;12.30;;
76127;SDS011;64873;50.102;14.434;2024-03-08T11:51:40;23.35;;;13.75;;
76127;SDS011;64873;50.102;14.434;2024-03-08T11:54:06;26.45;;;14.68;;
76127;SDS011;64873;50.102;14.434;2024-03-08T11:56:37;25.40;;;13.60;;
76127;SDS011;64873;50.102;14.434;2024-03-08T11:59:03;22.58;;;14.07;;
76127;SDS011;64873;50.102;14.434;2024-03-08T12:01:30;21.23;;;12.15;;
76127;SDS011;64873;50.102;14.434;2024-03-08T12:03:57;21.58;;;11.73;;
76127;SDS011;64873;50.102;14.434;2024-03-08T12:06:26;21.50;;;13.02;;
76127;SDS011;64873;50.102;14.434;2024-03-08T12:09:01;22.05;;;12.23;;
76127;SDS011;64873;50.102;14.434;2024-03-08T12:11:29;24.33;;;12.10;;
76127;SDS011;64873;50.102;14.434;2024-03-08T12:13:56;20.55;;;12.02;;
76127;SDS011;64873;50.102;14.434;2024-03-08T12:16:23;22.77;;;13.93;;
76127;SDS011;64873;50.102;14.434;2024-03-08T12:18:50;24.00;;;13.55;;
76127;SDS011;64873;50.102;14.434;2024-03-08T12:21:17;21.98;;;11.50;;
76127;SDS011;64873;50.102;14.434;2024-03-08T12:23:45;21.20;;;11.02;;
76127;SDS011;64873;50.102;14.434;2024-03-08T12:28:41;20.95;;;11.75;;
76127;SDS011;64873;50.102;14.434;2024-03-08T12:31:08;21.05;;;11.27;;
76127;SDS011;64873;50.102;14.434;2024-03-08T12:33:36;27.65;;;13.13;;
76127;SDS011;64873;50.102;14.434;2024-03-08T12:36:24;19.88;;;11.05;;
76127;SDS011;64873;50.102;14.434;2024-03-08T12:38:50;22.00;;;12.35;;
76127;SDS011;64873;50.102;14.434;2024-03-08T12:41:19;19.23;;;9.98;;
76127;SDS011;64873;50.102;14.434;2024-03-08T12:43:45;17.05;;;8.32;;
76127;SDS011;64873;50.102;14.434;2024-03-08T12:46:14;19.90;;;6.63;;
76127;SDS011;64873;50.102;14.434;2024-03-08T12:48:40;10.70;;;6.72;;
76127;SDS011;64873;50.102;14.434;2024-03-08T12:51:08;10.40;;;5.97;;
76127;SDS011;64873;50.102;14.434;2024-03-08T12:53:34;13.32;;;7.03;;
76127;SDS011;64873;50.102;14.434;2024-03-08T12:56:00;12.57;;;6.82;;
76127;SDS011;64873;50.102;14.434;2024-03-08T12:58:25;11.35;;;5.80;;
76127;SDS011;64873;50.102;14.434;2024-03-08T13:00:51;10.15;;;6.10;;
76127;SDS011;64873;50.102;14.434;2024-03-08T13:03:17;13.45;;;6.00;;
76127;SDS011;64873;50.102;14.434;2024-03-08T13:05:42;10.70;;;5.95;;
76127;SDS011;64873;50.102;14.434;2024-03-08T13:08:11;10.55;;;5.47;;
76127;SDS011;64873;50.102;14.434;2024-03-08T13:10:41;10.85;;;5.70;;
76127;SDS011;64873;50.102;14.434;2024-03-08T13:13:08;12.60;;;6.28;;
76127;SDS011;64873;50.102;14.434;2024-03-08T13:15:37;10.20;;;5.97;;
76127;SDS011;64873;50.102;14.434;2024-03-08T13:18:03;10.30;;;6.43;;
76127;SDS011;64873;50.102;14.434;2024-03-08T13:20:28;11.38;;;6.35;;
76127;SDS011;64873;50.102;14.434;2024-03-08T13:22:54;11.20;;;6.18;;
76127;SDS011;64873;50.102;14.434;2024-03-08T13:25:20;9.23;;;6.28;;
76127;SDS011;64873;50.102;14.434;2024-03-08T13:27:46;10.38;;;6.72;;
76127;SDS011;64873;50.102;14.434;2024-03-08T13:30:12;15.48;;;7.18;;
76127;SDS011;64873;50.102;14.434;2024-03-08T13:32:42;14.93;;;7.88;;
76127;SDS011;64873;50.102;14.434;2024-03-08T13:35:11;12.43;;;7.18;;
76127;SDS011;64873;50.102;14.434;2024-03-08T13:37:40;12.07;;;6.28;;
76127;SDS011;64873;50.102;14.434;2024-03-08T13:40:06;14.50;;;7.47;;
76127;SDS011;64873;50.102;14.434;2024-03-08T13:42:36;9.90;;;6.13;;
76127;SDS011;64873;50.102;14.434;2024-03-08T13:45:04;11.10;;;5.80;;
76127;SDS011;64873;50.102;14.434;2024-03-08T13:47:32;9.95;;;6.25;;
76127;SDS011;64873;50.102;14.434;2024-03-08T13:49:59;14.15;;;7.10;;
76127;SDS011;64873;50.102;14.434;2024-03-08T13:52:25;10.32;;;6.32;;
76127;SDS011;64873;50.102;14.434;2024-03-08T13:54:54;13.23;;;6.82;;
76127;SDS011;64873;50.102;14.434;2024-03-08T13:57:19;10.23;;;6.47;;
76127;SDS011;64873;50.102;14.434;2024-03-08T13:59:45;15.30;;;7.55;;
76127;SDS011;64873;50.102;14.434;2024-03-08T14:02:10;13.57;;;7.70;;
76127;SDS011;64873;50.102;14.434;2024-03-08T14:04:38;13.73;;;6.50;;
76127;SDS011;64873;50.102;14.434;2024-03-08T14:07:06;10.32;;;6.22;;
76127;SDS011;64873;50.102;14.434;2024-03-08T14:09:33;15.73;;;7.43;;
76127;SDS011;64873;50.102;14.434;2024-03-08T14:12:02;10.23;;;6.43;;
76127;SDS011;64873;50.102;14.434;2024-03-08T14:14:32;10.93;;;6.60;;
76127;SDS011;64873;50.102;14.434;2024-03-08T14:17:00;13.07;;;7.18;;
76127;SDS011;64873;50.102;14.434;2024-03-08T14:19:27;16.02;;;7.20;;
76127;SDS011;64873;50.102;14.434;2024-03-08T14:21:53;11.73;;;7.30;;
76127;SDS011;64873;50.102;14.434;2024-03-08T14:24:19;13.65;;;7.22;;